Flight Track Log - Related Links

Times and Time Zones

All times are in EST time to prevent confusion due to time zone crossing. See the AVN21 flight status page for this flight to view local times or setup timezone preferences in your user account.

Time Position Orientation Groundspeed Altitude Reporting Facility
EST Latitude Longitude Course Direction KTS MPH feet Rate Location/Type
Mon 07:37:26 PM -27.3965 153.1218 208° Southwest 179 206 100  Level FlightAware ADS-B
Mon 07:37:46 PM -27.4177 153.1095 207° Southwest 183 211 800 1,800 Climbing FlightAware ADS-B
Mon 07:38:06 PM -27.4330 153.1006 208° Southwest 192 221 1,300 1,385 Climbing FlightAware ADS-B
Mon 07:38:25 PM -27.4491 153.0913 207° Southwest 201 231 1,700 1,650 Climbing FlightAware ADS-B
Mon 07:38:46 PM -27.4649 153.0822 207° Southwest 199 229 2,400 1,756 Climbing FlightAware ADS-B
Mon 07:39:06 PM -27.4809 153.0699 228° Southwest 226 260 2,900 1,579 Climbing FlightAware ADS-B
Mon 07:39:24 PM -27.4895 153.0498 263° West 246 283 3,400 1,800 Climbing FlightAware ADS-B
Mon 07:39:46 PM -27.4842 153.0214 298° West 248 285 4,100 1,857 Climbing FlightAware ADS-B
Mon 07:40:06 PM -27.4741 153.0100 337° Northwest 245 282 4,700 2,053 Climbing FlightAware ADS-B
Mon 07:40:24 PM -27.4462 152.9992 345° North 249 287 5,400 1,800 Climbing FlightAware ADS-B
Mon 07:40:46 PM -27.4214 152.9976 12° North 251 289 5,900 1,429 Climbing FlightAware ADS-B
Mon 07:41:06 PM -27.3999 153.0102 35° Northeast 261 300 6,400 1,500 Climbing FlightAware ADS-B
Mon 07:41:26 PM -27.3817 153.0250 35° Northeast 275 316 6,900 1,622 Climbing FlightAware ADS-B
Mon 07:41:43 PM -27.3615 153.0411 35° Northeast 286 329 7,400 2,000 Climbing FlightAware ADS-B
Mon 07:42:05 PM -27.3377 153.0599 36° Northeast 278 320 8,200 2,286 Climbing FlightAware ADS-B (YXTO)
Mon 07:42:25 PM -27.3163 153.0770 37° Northeast 281 323 9,000 2,200 Climbing FlightAware ADS-B (YXTO)
Mon 07:42:35 PM -27.3063 153.0869 46° Northeast 282 325 9,300 2,069 Climbing FlightAware ADS-B (YXTO)
Mon 07:42:54 PM -27.2913 153.1117 66° East 285 328 10,000 2,000 Climbing FlightAware ADS-B (YXTO)
Mon 07:43:05 PM -27.2869 153.1267 77° East 289 333 10,300 1,143 Climbing FlightAware ADS-B (YXTO)
Mon 07:43:36 PM -27.2775 153.1747 78° East 321 369 10,800 984 Climbing FlightAware ADS-B (YXTO)
Mon 07:44:06 PM -27.2696 153.2166 78° East 349 402 11,300 1,320 Climbing FlightAware ADS-B
Mon 07:44:26 PM -27.2611 153.2611 79° East 357 411 11,900 1,650 Climbing FlightAware ADS-B (YXTO)
Mon 07:44:46 PM -27.2541 153.2976 79° East 367 422 12,400 1,800 Climbing FlightAware ADS-B (YXTO)
Mon 07:45:16 PM -27.2425 153.3572 78° East 381 438 13,400 2,000 Climbing FlightAware ADS-B (YXTO)
Mon 07:45:46 PM -27.2323 153.4098 78° East 390 449 14,400 1,800 Climbing FlightAware ADS-B
Mon 07:46:16 PM -27.2195 153.4749 78° East 402 463 15,200 1,692 Climbing FlightAware ADS-B (YXTO)
Mon 07:46:25 PM -27.2158 153.4936 79° East 405 466 15,500 1,959 Climbing FlightAware ADS-B (YXTO)
Mon 07:47:05 PM -27.2053 153.5473 78° East 417 480 16,800 2,105 Climbing FlightAware ADS-B
Mon 07:47:22 PM -27.1900 153.6243 75° East 422 486 17,500 1,619 Climbing FlightAware ADS-B
Mon 07:48:08 PM -27.1573 153.7049 58° Northeast 433 498 18,500 1,429 Climbing FlightAware ADS-B
Mon 07:48:46 PM -27.1141 153.7772 56° Northeast 444 511 19,500 1,840 Climbing FlightAware ADS-B (YXTO)
Mon 07:49:23 PM -27.0777 153.8382 56° Northeast 448 516 20,800 1,852 Climbing FlightAware ADS-B
Mon 07:50:07 PM -27.0213 153.9328 56° Northeast 452 520 22,000 1,773 Climbing FlightAware ADS-B
Mon 07:50:51 PM -26.9681 154.0220 56° Northeast 457 526 23,400 1,425 Climbing Aus ATC (RADAR)
Mon 07:51:27 PM -26.9800 154.0020 56° Northeast 462 532 23,900 1,280 Climbing FlightAware ADS-B
Mon 07:52:06 PM -26.8773 154.1722 56° Northeast 470 541 25,000 1,462 Climbing Aus ATC (RADAR)
Mon 07:53:26 PM -26.7782 154.3375 56° Northeast 479 551 26,800 1,371 Climbing Aus ATC (RADAR)
Mon 07:53:51 PM -26.7467 154.3888 55° Northeast 480 552 27,400 831 Climbing Aus ATC (RADAR)
Mon 07:54:31 PM -26.6954 154.4725 56° Northeast 489 563 27,700 450 Climbing Aus ATC (RADAR)
Mon 07:55:11 PM -26.6429 154.5591 56° Northeast 501 577 28,000 720 Climbing Aus ATC (RADAR)
Mon 07:55:46 PM -26.5966 154.6367 56° Northeast 503 579 28,600 1,271 Climbing Aus ATC (RADAR)
Mon 07:56:36 PM -26.5302 154.7469 56° Northeast 509 586 29,800 1,520 Climbing Aus ATC (RADAR)
Mon 07:57:01 PM -26.4976 154.8014 56° Northeast 506 582 30,500 1,416 Climbing Aus ATC (RADAR)
Mon 07:58:05 PM -26.4139 154.9410 56° Northeast 497 572 31,900 1,281 Climbing Aus ATC (RADAR)
Mon 07:58:30 PM -26.3814 154.9939 56° Northeast 494 568 32,400 1,043 Climbing Aus ATC (RADAR)
Mon 07:58:51 PM -26.3546 155.0350 54° Northeast 490 564 32,700 800 Climbing Aus ATC (RADAR)
Mon 07:59:15 PM -26.3219 155.0876 55° Northeast 492 566 33,000 583 Climbing Aus ATC (RADAR)
Mon 08:00:03 PM -26.2638 155.1854 56° Northeast 500 575 33,400 553 Climbing Aus ATC (RADAR)
Mon 08:00:31 PM -26.2229 155.2498 55° Northeast 505 581 33,700 900 Climbing Aus ATC (RADAR)
Mon 08:01:03 PM -26.1833 155.3150 56° Northeast 505 581 34,300 1,063 Climbing Aus ATC (RADAR)
Mon 08:01:50 PM -26.1172 155.4221 56° Northeast 500 575 35,100 1,065 Climbing Aus ATC (RADAR)
Mon 08:02:05 PM -26.0973 155.4537 55° Northeast 498 573 35,400 686 Climbing Aus ATC (RADAR)
Mon 08:03:35 PM -25.9783 155.6439 55° Northeast 496 571 36,300 466 Climbing Aus ATC (RADAR)
Mon 08:04:01 PM -25.9455 155.6976 56° Northeast 497 572 36,300  Level Aus ATC (RADAR)
Mon 08:04:30 PM -25.9055 155.7613 55° Northeast 498 573 36,300  Level Aus ATC (RADAR)
Mon 08:05:05 PM -25.8594 155.8365 56° Northeast 499 574 36,300  Level Aus ATC (RADAR)
Mon 08:05:50 PM -25.7994 155.9320 55° Northeast 497 572 36,300  Level Aus ATC (RADAR)
Mon 08:06:25 PM -25.7530 156.0057 55° Northeast 494 568 36,300  Level Aus ATC (RADAR)
Mon 08:07:10 PM -25.6943 156.1008 56° Northeast 493 567 36,300  Level Aus ATC (RADAR)
Mon 08:07:35 PM -25.6612 156.1545 56° Northeast 493 567 36,300  Level Aus ATC (RADAR)
Mon 08:08:20 PM -25.6010 156.2481 55° Northeast 491 565 36,300  Level Aus ATC (RADAR)
Mon 08:09:00 PM -25.5496 156.3332 56° Northeast 492 566 36,300 -225 Level Aus ATC (RADAR)
Mon 08:09:40 PM -25.5002 156.4200 58° Northeast 493 567 36,000 -202 Descending Aus ATC (RADAR)
Mon 08:10:29 PM -25.4368 156.5264 57° Northeast 491 565 36,000  Level Aus ATC (RADAR)
Mon 08:10:44 PM -25.4177 156.5587 57° Northeast 493 567 36,000  Level Aus ATC (RADAR)
Mon 08:11:25 PM -25.3672 156.6445 57° Northeast 493 567 36,000  Level Aus ATC (RADAR)
Mon 08:12:04 PM -25.3169 156.7308 57° Northeast 492 566 36,000  Level Aus ATC (RADAR)
Mon 08:12:25 PM -25.2908 156.7729 56° Northeast 492 566 36,000  Level Aus ATC (RADAR)
Mon 08:13:34 PM -25.1988 156.9180 55° Northeast 485 558 36,000  Level Aus ATC (RADAR)
Mon 08:14:04 PM -25.1619 156.9810 57° Northeast 482 555 36,000  Level Aus ATC (RADAR)
Mon 08:14:29 PM -25.1315 157.0343 58° Northeast 482 555 36,000  Level Aus ATC (RADAR)
Mon 08:14:44 PM -25.1135 157.0654 57° Northeast 482 555 36,000  Level Aus ATC (RADAR)
Mon 08:15:55 PM -25.0241 157.2101 56° Northeast 484 557 36,000  Level Aus ATC (RADAR)
Mon 08:16:24 PM -24.9873 157.2741 58° Northeast 481 554 36,000  Level Aus ATC (RADAR)
Mon 08:16:39 PM -24.9672 157.3036 53° Northeast 482 555 36,000  Level Aus ATC (RADAR)
Mon 08:19:44 PM -24.7200 157.7214 236° Southwest 36,000  Level Aus ATC (Calculated)
Mon 08:21:00 PM -24.8061 157.5808 236° Southwest  Level FlightAware Approximate
Mon 08:22:00 PM -24.8739 157.4696 236° Southwest  Level FlightAware Approximate
Mon 08:23:00 PM -24.9417 157.3584 236° Southwest  Level FlightAware Approximate
Mon 08:24:00 PM -25.0093 157.2469 236° Southwest  Level FlightAware Approximate
Mon 08:25:00 PM -25.0770 157.1354 236° Southwest  Level FlightAware Approximate
Mon 08:26:00 PM -25.1445 157.0238 236° Southwest  Level FlightAware Approximate
Mon 08:27:00 PM -25.2119 156.9120 236° Southwest  Level FlightAware Approximate
Mon 08:28:00 PM -25.2792 156.8001 236° Southwest  Level FlightAware Approximate
Mon 08:29:00 PM -25.3465 156.6881 236° Southwest  Level FlightAware Approximate
Mon 08:29:21 PM -23.9768 158.9566 236° Southwest 36,000  Level Aus ATC (Calculated)
Mon 08:31:00 PM -24.0893 158.7748 236° Southwest  Level FlightAware Approximate
Mon 08:32:00 PM -24.1574 158.6644 236° Southwest  Level FlightAware Approximate
Mon 08:33:00 PM -24.2255 158.5540 236° Southwest  Level FlightAware Approximate
Mon 08:34:00 PM -24.2934 158.4434 236° Southwest  Level FlightAware Approximate
Mon 08:34:00 PM -23.5013 159.4743 234° Southwest 36,000  Level Aus ATC (Calculated)
Mon 08:35:00 PM -23.5732 159.3673 234° Southwest  Level FlightAware Approximate
Mon 08:35:22 PM -23.3449 159.6433 233° Southwest 36,000  Level Aus ATC (Calculated)
Mon 08:37:00 PM -23.4630 159.4713 233° Southwest  Level FlightAware Approximate
Mon 08:38:00 PM -23.5352 159.3658 233° Southwest  Level FlightAware Approximate
Mon 08:39:00 PM -23.6073 159.2601 233° Southwest  Level FlightAware Approximate
Mon 08:40:00 PM -23.6794 159.1544 233° Southwest  Level FlightAware Approximate
Mon 08:41:00 PM -23.7514 159.0486 233° Southwest  Level FlightAware Approximate
Mon 08:42:00 PM -23.6652 159.1409 57° Northeast  Level Estimated
Mon 08:43:00 PM -23.6549 159.2722 85° East  Level FlightAware Approximate
Mon 08:44:00 PM -23.6445 159.4035 85° East  Level FlightAware Approximate
Mon 08:45:00 PM -23.6340 159.5348 85° East  Level FlightAware Approximate
Mon 08:46:00 PM -23.6445 159.4035 265° West  Level FlightAware Approximate
Mon 08:47:00 PM -23.6340 159.5348 85° East  Level FlightAware Approximate
Mon 08:48:00 PM -23.6445 159.4035 265° West  Level FlightAware Approximate
Mon 08:49:00 PM -23.6340 159.5348 85° East  Level FlightAware Approximate
Mon 08:50:00 PM -23.6445 159.4035 265° West  Level FlightAware Approximate
Mon 08:51:00 PM -23.6340 159.5348 85° East  Level FlightAware Approximate
Mon 08:52:00 PM -23.6445 159.4035 265° West  Level FlightAware Approximate
Mon 08:52:20 PM -21.7446 161.3402 221° Southwest 36,000  Level Aus ATC (Calculated)
Mon 08:54:00 PM -21.8955 161.1970 221° Southwest  Level FlightAware Approximate
Mon 08:55:00 PM -21.9861 161.1108 221° Southwest  Level FlightAware Approximate
Mon 08:55:00 PM -21.4930 161.6019 222° Southwest 36,000  Level Aus ATC (Calculated)
Mon 08:56:00 PM -21.5832 161.5158 222° Southwest  Level FlightAware Approximate
Mon 08:57:00 PM -21.6734 161.4295 222° Southwest  Level FlightAware Approximate
Mon 08:58:00 PM -21.7636 161.3431 222° Southwest  Level FlightAware Approximate
Mon 08:59:00 PM -21.8537 161.2566 222° Southwest  Level FlightAware Approximate
Mon 09:00:00 PM -21.9438 161.1700 222° Southwest  Level FlightAware Approximate
Mon 09:01:00 PM -22.0338 161.0832 222° Southwest  Level FlightAware Approximate
Mon 09:02:00 PM -22.1238 160.9964 222° Southwest  Level FlightAware Approximate
Mon 09:03:00 PM -22.2138 160.9095 222° Southwest  Level FlightAware Approximate
Mon 09:04:00 PM -22.3036 160.8224 222° Southwest  Level FlightAware Approximate
Mon 09:05:00 PM -22.3935 160.7352 222° Southwest  Level FlightAware Approximate
Mon 09:05:00 PM -20.5123 162.6093 222° Southwest 36,000  Level Aus ATC (Calculated)
Mon 09:06:00 PM -20.6020 162.5230 222° Southwest  Level FlightAware Approximate
Mon 09:07:00 PM -20.6917 162.4366 222° Southwest  Level FlightAware Approximate
Mon 09:08:00 PM -20.7813 162.3501 222° Southwest  Level FlightAware Approximate
Mon 09:09:00 PM -20.8708 162.2635 222° Southwest  Level FlightAware Approximate
Mon 09:10:00 PM -20.9604 162.1768 222° Southwest  Level FlightAware Approximate
Mon 09:11:00 PM -21.0498 162.0900 222° Southwest  Level FlightAware Approximate
Mon 09:12:00 PM -21.1392 162.0031 222° Southwest  Level FlightAware Approximate
Mon 09:13:00 PM -21.2286 161.9161 222° Southwest  Level FlightAware Approximate
Mon 09:14:00 PM -21.1392 162.0031 43° Northeast  Level Estimated
Mon 09:15:00 PM -21.0506 162.0910 43° Northeast  Level FlightAware Approximate
Mon 09:16:00 PM -20.9621 162.1789 43° Northeast  Level FlightAware Approximate
Mon 09:17:00 PM -20.8734 162.2666 43° Northeast  Level FlightAware Approximate
Mon 09:18:00 PM -20.7848 162.3543 43° Northeast  Level FlightAware Approximate
Mon 09:19:00 PM -20.6961 162.4418 43° Northeast  Level FlightAware Approximate
Mon 09:20:00 PM -20.6073 162.5293 43° Northeast  Level FlightAware Approximate
Mon 09:21:00 PM -20.5185 162.6166 43° Northeast  Level FlightAware Approximate
Mon 09:22:00 PM -20.4297 162.7038 43° Northeast  Level FlightAware Approximate
Mon 09:23:00 PM -20.3408 162.7910 43° Northeast  Level FlightAware Approximate
Mon 09:24:00 PM -20.2519 162.8780 43° Northeast  Level FlightAware Approximate
Mon 09:25:00 PM -20.1629 162.9649 43° Northeast  Level FlightAware Approximate
Mon 09:26:00 PM -20.0739 163.0518 43° Northeast  Level FlightAware Approximate
Mon 09:27:00 PM -20.1629 162.9649 222° Southwest  Level FlightAware Approximate
Mon 09:28:00 PM -20.0739 163.0518 43° Northeast  Level FlightAware Approximate
Mon 09:29:00 PM -20.1629 162.9649 222° Southwest  Level FlightAware Approximate
Mon 09:30:00 PM -20.0739 163.0518 43° Northeast  Level FlightAware Approximate
Mon 09:31:00 PM -20.1629 162.9649 222° Southwest  Level FlightAware Approximate
Mon 09:32:00 PM -20.0739 163.0518 43° Northeast  Level FlightAware Approximate
Mon 09:33:00 PM -20.1629 162.9649 222° Southwest  Level FlightAware Approximate
Mon 09:34:00 PM -20.0739 163.0518 43° Northeast  Level FlightAware Approximate
Mon 09:35:00 PM -20.1629 162.9649 222° Southwest  Level FlightAware Approximate
Mon 09:36:00 PM -20.0739 163.0518 43° Northeast  Level FlightAware Approximate
Mon 09:37:00 PM -20.1629 162.9649 222° Southwest  Level FlightAware Approximate
Mon 09:38:00 PM -20.0739 163.0518 43° Northeast  Level FlightAware Approximate
Mon 09:39:00 PM -20.1629 162.9649 222° Southwest  Level FlightAware Approximate
Mon 09:40:00 PM -20.0739 163.0518 43° Northeast  Level FlightAware Approximate
Mon 09:41:00 PM -20.1629 162.9649 222° Southwest  Level FlightAware Approximate
Mon 09:42:00 PM -20.0739 163.0518 43° Northeast  Level FlightAware Approximate
Mon 09:43:00 PM -20.1629 162.9649 222° Southwest  Level FlightAware Approximate
Mon 09:44:00 PM -20.0739 163.0518 43° Northeast  Level FlightAware Approximate
Mon 09:45:00 PM -20.1629 162.9649 222° Southwest  Level FlightAware Approximate
Mon 09:46:00 PM -20.0739 163.0518 43° Northeast  Level FlightAware Approximate
Mon 09:47:00 PM -20.1629 162.9649 222° Southwest  Level FlightAware Approximate
Mon 09:48:00 PM -20.0739 163.0518 43° Northeast  Level FlightAware Approximate
Mon 09:49:00 PM -20.1629 162.9649 222° Southwest  Level FlightAware Approximate
Mon 09:50:00 PM -20.0739 163.0518 43° Northeast  Level FlightAware Approximate
Mon 09:51:00 PM -20.1629 162.9649 222° Southwest  Level FlightAware Approximate
Mon 09:52:00 PM -20.0739 163.0518 43° Northeast  Level FlightAware Approximate
Mon 09:53:00 PM -20.1213 163.0054 42° Northeast  Level FlightAware Approximate
Mon 09:54:00 PM -20.0310 163.0908 42° Northeast  Level FlightAware Approximate
Mon 09:55:00 PM -19.9408 163.1761 42° Northeast  Level FlightAware Approximate
Mon 09:56:00 PM -19.8505 163.2613 42° Northeast  Level FlightAware Approximate
Mon 09:57:00 PM -19.7601 163.3464 42° Northeast  Level FlightAware Approximate
Mon 09:58:00 PM -19.6697 163.4314 42° Northeast  Level FlightAware Approximate
Mon 09:59:00 PM -19.5793 163.5163 42° Northeast  Level FlightAware Approximate
Mon 10:00:00 PM -19.4888 163.6011 41° Northeast  Level FlightAware Approximate
Mon 10:01:00 PM -19.3983 163.6859 41° Northeast  Level FlightAware Approximate
Mon 10:02:00 PM -19.3078 163.7705 41° Northeast  Level FlightAware Approximate
Mon 10:03:00 PM -19.2172 163.8550 41° Northeast  Level FlightAware Approximate
Mon 10:04:00 PM -19.1266 163.9394 41° Northeast  Level FlightAware Approximate
Mon 10:05:00 PM -19.0359 164.0238 41° Northeast  Level FlightAware Approximate
Mon 10:06:00 PM -18.9453 164.1080 41° Northeast  Level FlightAware Approximate
Mon 10:07:00 PM -18.8545 164.1922 41° Northeast  Level FlightAware Approximate
Mon 10:08:00 PM -18.7638 164.2763 41° Northeast  Level FlightAware Approximate
Mon 10:09:00 PM -18.6729 164.3602 41° Northeast  Level FlightAware Approximate
Mon 10:10:00 PM -18.5821 164.4441 41° Northeast  Level FlightAware Approximate
Mon 10:11:00 PM -18.4912 164.5279 41° Northeast  Level FlightAware Approximate
Mon 10:12:00 PM -18.4003 164.6116 41° Northeast  Level FlightAware Approximate
Mon 10:13:00 PM -18.3093 164.6953 41° Northeast  Level FlightAware Approximate
Mon 10:14:00 PM -18.2183 164.7788 41° Northeast  Level FlightAware Approximate
Mon 10:15:00 PM -18.1273 164.8622 41° Northeast  Level FlightAware Approximate
Mon 10:16:00 PM -18.0362 164.9456 41° Northeast  Level FlightAware Approximate
Mon 10:17:00 PM -17.9452 165.0289 41° Northeast  Level FlightAware Approximate
Mon 10:18:00 PM -17.8540 165.1121 41° Northeast  Level FlightAware Approximate
Mon 10:19:00 PM -17.7628 165.1952 41° Northeast  Level FlightAware Approximate
Mon 10:20:00 PM -17.6716 165.2782 41° Northeast  Level FlightAware Approximate
Mon 10:21:00 PM -17.5804 165.3611 41° Northeast  Level FlightAware Approximate
Mon 10:22:00 PM -17.4891 165.4440 41° Northeast  Level FlightAware Approximate
Mon 10:23:00 PM -17.3978 165.5267 41° Northeast  Level FlightAware Approximate
Mon 10:24:00 PM -17.3065 165.6094 41° Northeast  Level FlightAware Approximate
Mon 10:25:00 PM -17.2151 165.6920 41° Northeast  Level FlightAware Approximate
Mon 10:26:00 PM -17.1237 165.7746 41° Northeast  Level FlightAware Approximate
Mon 10:27:00 PM -17.0322 165.8570 41° Northeast  Level FlightAware Approximate
Mon 10:28:00 PM -16.9408 165.9394 41° Northeast  Level FlightAware Approximate
Mon 10:29:00 PM -16.8492 166.0216 41° Northeast  Level FlightAware Approximate
Mon 10:30:00 PM -16.7577 166.1038 41° Northeast  Level FlightAware Approximate
Mon 10:31:00 PM -16.6661 166.1860 41° Northeast  Level FlightAware Approximate
Mon 10:32:00 PM -16.5745 166.2680 41° Northeast  Level FlightAware Approximate
Mon 10:33:00 PM -16.4829 166.3500 41° Northeast  Level FlightAware Approximate
Mon 10:34:00 PM -16.3912 166.4319 41° Northeast  Level FlightAware Approximate
Mon 10:35:00 PM -16.2995 166.5137 41° Northeast  Level FlightAware Approximate
Mon 10:36:00 PM -16.2078 166.5954 41° Northeast  Level FlightAware Approximate
Mon 10:37:00 PM -16.1160 166.6770 41° Northeast  Level FlightAware Approximate
Mon 10:38:00 PM -16.0242 166.7586 41° Northeast  Level FlightAware Approximate
Mon 10:39:00 PM -15.9324 166.8401 40° Northeast  Level FlightAware Approximate
Mon 10:40:00 PM -15.8405 166.9216 40° Northeast  Level FlightAware Approximate
Mon 10:41:00 PM -15.7486 167.0029 40° Northeast  Level FlightAware Approximate
Mon 10:42:00 PM -15.6567 167.0842 40° Northeast  Level FlightAware Approximate

Login

Don't have an account? Register now (free) for customized features, flight alerts, and more!